Monday, October 20, 2014, 10:08 PM EDT

KRIC, Richmond International Airport

Location: Sandston, VA, United States Lat: 37.517
Local Time: 10:08 PM EDT ( 2:08 GMT) Lon: -77.317
Time Zone: US/Eastern Elev: 167 ft

Show me the last for .
Show Decoded

2014-10-20 21:54 METAR KRIC 210154Z 18004KT 10SM BKN300 13/07 A2997 RMK AO2 SLP155 T01280067 =
2014-10-20 20:54 METAR KRIC 210054Z 18007KT 10SM BKN300 13/07 A2998 RMK AO2 SLP157 T01330072 =
2014-10-20 19:54 METAR KRIC 202354Z 19006KT 10SM BKN300 12/06 A2999 RMK AO2 SLP160 T01220061
                 10200 20117 53005 =
2014-10-20 18:54 METAR KRIC 202254Z 18004KT 10SM FEW180 BKN300 16/05 A2998 RMK AO2 SLP158
                 T01610050 =
2014-10-20 17:54 METAR KRIC 202154Z 20008KT 10SM FEW180 BKN300 18/06 A2997 RMK AO2 SLP154
                 T01780056 =
2014-10-20 16:54 METAR KRIC 202054Z 18009KT 10SM FEW180 BKN300 19/05 A2998 RMK AO2 SLP155
                 T01940050 56019 =
2014-10-20 15:54 METAR KRIC 201954Z 20009KT 10SM BKN300 20/04 A2999 RMK AO2 SLP161 T02000044 =
2014-10-20 14:54 METAR KRIC 201854Z 19013KT 10SM BKN300 20/04 A3001 RMK AO2 SLP167 T02000044 =
2014-10-20 13:54 METAR KRIC 201754Z 18012KT 10SM BKN300 19/04 A3003 RMK AO2 SLP174 T01940044
                 10200 20061 58035 =
2014-10-20 12:54 METAR KRIC 201654Z 20012KT 10SM BKN300 18/06 A3008 RMK AO2 SLP190 T01830056 =
2014-10-20 11:54 METAR KRIC 201554Z 19014G19KT 10SM BKN300 17/06 A3011 RMK AO2 PK WND 18026/1542
                 SLP201 T01720056 =
2014-10-20 10:54 METAR KRIC 201454Z 21012KT 10SM FEW250 BKN300 16/06 A3014 RMK AO2 SLP210
                 T01560061 58001 =
2014-10-20 09:54 METAR KRIC 201354Z 19008KT 10SM FEW250 BKN300 12/07 A3016 RMK AO2 SLP216
                 T01220067 =
2014-10-20 08:54 METAR KRIC 201254Z 18004KT 10SM FEW250 BKN300 09/06 A3016 RMK AO2 SLP217
                 T00940056 =
2014-10-20 07:54 METAR KRIC 201154Z 00000KT 10SM SCT250 BKN300 06/04 A3014 =
2014-10-20 06:54 METAR KRIC 201054Z 00000KT 10SM FEW200 BKN300 06/03 A3013 RMK AO2 SLP207
                 T00610033 =
2014-10-20 05:54 METAR KRIC 200954Z 00000KT 10SM FEW300 05/02 A3013 RMK AO2 SLP206 T00500022 =
2014-10-20 04:54 METAR KRIC 200854Z 00000KT 10SM FEW300 05/03 A3012 RMK AO2 SLP205 T00500028
                 55000 =
2014-10-20 03:54 METAR KRIC 200754Z 00000KT 10SM FEW300 05/03 A3011 RMK AO2 SLP202 T00500028 =
2014-10-20 02:54 METAR KRIC 200654Z 00000KT 10SM FEW300 06/02 A3012 =
2014-10-20 01:54 METAR KRIC 200554Z 00000KT 10SM FEW300 06/02 A3012 =
2014-10-20 00:54 METAR KRIC 200454Z 00000KT 10SM SCT300 07/03 A3012 RMK AO2 SLP205 T00670028
                 401830056 =
2014-10-19 22:54 METAR KRIC 200254Z 00000KT 10SM SCT300 08/04 A3013 RMK AO2 SLP208 T00780039
                 51011 =

Support USWX by starting your Amazon purchase here.